Time;durP1;ratioP1;P1;durP2;ratioP2;P2;SDS_P1;SDS_P2;PMS_P1;PMS_P2;Temp;Humidity;BMP_temperature;BMP_pressure;BME280_temperature;BME280_humidity;BME280_pressure;Samples;Min_cycle;Max_cycle;Signal;HPM_P1;HPM_P2
2023/12/25 00:00:26;;;;;;;1.90;1.50;;;;;;;7.88;100.00;96991.25;5079955;28;20447;-84
2023/12/25 00:02:52;;;;;;;2.97;1.60;;;;;;;7.83;100.00;97003.53;5070860;28;20822;-81
2023/12/25 00:05:18;;;;;;;2.03;1.58;;;;;;;7.82;100.00;97007.25;5070309;28;20399;-82
2023/12/25 00:07:45;;;;;;;3.47;1.42;;;;;;;7.80;100.00;96998.78;5063195;28;20482;-82
2023/12/25 00:10:12;;;;;;;2.05;1.45;;;;;;;7.79;100.00;96997.97;5066689;28;20416;-82
2023/12/25 00:12:38;;;;;;;1.73;1.60;;;;;;;7.79;100.00;96997.97;5078811;28;20396;-81
2023/12/25 00:15:05;;;;;;;4.07;1.50;;;;;;;7.79;100.00;97005.88;5056988;28;20952;-81
2023/12/25 00:17:32;;;;;;;3.00;1.70;;;;;;;7.73;100.00;97010.28;5057923;28;20420;-83
2023/12/25 00:19:58;;;;;;;2.35;1.70;;;;;;;7.78;100.00;96993.75;5063956;28;20392;-83
2023/12/25 00:22:24;;;;;;;2.35;1.50;;;;;;;7.80;100.00;96983.78;5078460;28;20418;-83
2023/12/25 00:24:50;;;;;;;2.88;1.50;;;;;;;7.78;100.00;96994.53;5079560;28;20513;-81
2023/12/25 00:27:17;;;;;;;3.28;1.52;;;;;;;7.79;100.00;96997.97;5071213;28;20433;-80
2023/12/25 00:29:44;;;;;;;3.15;1.58;;;;;;;7.80;100.00;96983.78;5054937;28;20409;-81
2023/12/25 00:32:10;;;;;;;1.53;1.30;;;;;;;7.83;100.00;96977.19;5055008;28;20910;-81
2023/12/25 00:34:36;;;;;;;1.65;1.38;;;;;;;7.83;100.00;97000.91;5054542;28;20397;-81
2023/12/25 00:37:02;;;;;;;2.33;1.52;;;;;;;7.87;100.00;96988.84;5054718;28;20409;-81
2023/12/25 00:39:28;;;;;;;1.88;1.40;;;;;;;7.86;100.00;96987.25;5055236;28;20930;-81
2023/12/25 00:41:54;;;;;;;2.03;1.50;;;;;;;7.88;100.00;97001.00;5055278;28;20488;-82
2023/12/25 00:44:22;;;;;;;2.60;1.42;;;;;;;7.87;100.00;96999.41;5054387;28;20489;-81
2023/12/25 00:46:48;;;;;;;3.17;1.70;;;;;;;7.84;100.00;97019.13;5054743;28;20467;-82
2023/12/25 00:49:15;;;;;;;2.83;1.60;;;;;;;7.87;100.00;97007.31;5053944;28;20452;-81
2023/12/25 00:51:41;;;;;;;1.90;1.70;;;;;;;7.88;100.00;97016.81;5054950;28;20418;-81
2023/12/25 00:54:08;;;;;;;2.13;1.50;;;;;;;7.90;100.00;97007.59;5056661;28;20417;-81
2023/12/25 00:56:34;;;;;;;2.92;1.58;;;;;;;7.92;100.00;97000.25;5058607;28;20401;-82
2023/12/25 00:59:00;;;;;;;2.45;1.30;;;;;;;7.94;100.00;97003.47;5060479;28;20413;-81
2023/12/25 01:01:27;;;;;;;1.70;1.30;;;;;;;7.94;100.00;97006.09;5059058;28;20750;-82
2023/12/25 01:03:53;;;;;;;2.10;1.50;;;;;;;7.96;100.00;96997.94;5073744;28;20404;-80
2023/12/25 01:06:20;;;;;;;3.13;1.80;;;;;;;7.91;100.00;97005.75;5084402;28;20410;-80
2023/12/25 01:08:46;;;;;;;1.93;1.40;;;;;;;7.93;100.00;96998.44;5091045;28;20483;-79
2023/12/25 01:11:12;;;;;;;1.27;1.17;;;;;;;7.94;100.00;97003.47;5081756;28;20430;-81
2023/12/25 01:13:38;;;;;;;2.78;1.60;;;;;;;7.95;100.00;97010.31;5079353;28;20396;-79
2023/12/25 01:16:05;;;;;;;2.72;1.60;;;;;;;7.99;100.00;97000.88;5073752;28;20395;-80
2023/12/25 01:18:33;;;;;;;1.65;1.30;;;;;;;7.99;100.00;97008.00;5074244;28;20392;-80
2023/12/25 01:20:59;;;;;;;2.28;1.30;;;;;;;7.90;100.00;97028.69;5068686;28;20403;-80
2023/12/25 01:23:25;;;;;;;3.30;1.70;;;;;;;7.89;100.00;97021.03;5074411;28;20421;-81
2023/12/25 01:25:51;;;;;;;1.50;1.33;;;;;;;7.93;100.00;97012.41;5074330;28;20456;-80
2023/12/25 01:28:17;;;;;;;2.30;1.50;;;;;;;7.97;100.00;97012.72;5073553;28;20403;-81
2023/12/25 01:30:43;;;;;;;2.40;1.40;;;;;;;7.93;100.00;96993.16;5069408;28;20450;-80
2023/12/25 01:33:09;;;;;;;8.27;1.50;;;;;;;7.89;100.00;96979.69;5073875;28;20396;-81
2023/12/25 01:35:37;;;;;;;1.63;1.37;;;;;;;7.84;100.00;96998.03;5073569;28;20392;-80
2023/12/25 01:38:04;;;;;;;2.50;1.40;;;;;;;7.83;100.00;96983.25;5055155;28;20397;-81
2023/12/25 01:40:30;;;;;;;1.70;1.40;;;;;;;7.85;100.00;96977.75;5053529;28;20397;-81
2023/12/25 01:42:56;;;;;;;3.00;1.70;;;;;;;7.78;100.00;96991.09;5053156;28;20433;-80
2023/12/25 01:45:22;;;;;;;2.13;1.55;;;;;;;7.76;100.00;96999.25;5053593;28;20397;-80
2023/12/25 01:47:48;;;;;;;2.70;1.65;;;;;;;7.76;100.00;97009.00;5053366;28;20441;-81
2023/12/25 01:50:16;;;;;;;3.13;1.40;;;;;;;7.75;100.00;96984.47;5063817;28;20450;-81
2023/12/25 01:52:44;;;;;;;1.83;1.60;;;;;;;7.72;100.00;96981.53;5072382;28;20396;-81
2023/12/25 01:55:11;;;;;;;4.57;1.88;;;;;;;7.70;100.00;96971.25;5073491;28;20396;-80
2023/12/25 01:57:38;;;;;;;2.03;1.38;;;;;;;7.65;100.00;96973.00;5073371;28;20392;-81
2023/12/25 02:00:05;;;;;;;2.33;1.48;;;;;;;7.61;100.00;96970.06;5056794;28;20397;-80
2023/12/25 02:02:31;;;;;;;1.77;1.40;;;;;;;7.57;100.00;96981.31;5057358;28;20415;-80
2023/12/25 02:04:57;;;;;;;1.60;1.30;;;;;;;7.53;100.00;96975.72;5057321;28;20393;-79
2023/12/25 02:07:24;;;;;;;2.85;1.45;;;;;;;7.54;100.00;96987.06;5058022;28;20405;-80
2023/12/25 02:09:51;;;;;;;5.65;1.70;;;;;;;7.49;100.00;96979.91;5061984;28;20480;-81
2023/12/25 02:12:18;;;;;;;4.57;1.40;;;;;;;7.46;100.00;97011.16;5077463;28;20514;-80
2023/12/25 02:14:44;;;;;;;2.97;1.40;;;;;;;7.47;100.00;97000.41;5077413;28;20398;-80
2023/12/25 02:17:12;;;;;;;4.03;1.58;;;;;;;7.50;100.00;96996.50;5074447;28;20445;-81
2023/12/25 02:19:40;;;;;;;1.40;1.30;;;;;;;7.49;100.00;97000.97;5058564;28;20393;-80
2023/12/25 02:22:07;;;;;;;2.03;1.42;;;;;;;7.43;100.00;97006.41;5077472;28;20453;-80
2023/12/25 02:24:36;;;;;;;2.20;1.30;;;;;;;7.47;100.00;96994.34;5076826;28;20818;-81
2023/12/25 02:27:05;;;;;;;2.00;1.40;;;;;;;7.44;100.00;97000.09;5077871;28;20817;-81
2023/12/25 02:29:31;;;;;;;1.80;1.50;;;;;;;7.44;100.00;97008.81;5061680;28;20393;-80
2023/12/25 02:31:58;;;;;;;1.52;1.40;;;;;;;7.42;100.00;97012.69;5055579;28;20821;-80
2023/12/25 02:34:24;;;;;;;2.42;1.60;;;;;;;7.45;100.00;97006.94;5057150;28;20723;-80
2023/12/25 02:36:50;;;;;;;4.25;1.60;;;;;;;7.42;100.00;97016.13;5057430;28;20398;-80
2023/12/25 02:39:17;;;;;;;2.78;1.63;;;;;;;7.42;100.00;97010.88;5056798;28;20393;-80
2023/12/25 02:41:43;;;;;;;4.93;1.80;;;;;;;7.44;100.00;97031.69;5069708;28;20415;-80
2023/12/25 02:44:11;;;;;;;3.27;1.50;;;;;;;7.48;100.00;97003.84;5076936;28;20480;-81
2023/12/25 02:46:37;;;;;;;2.50;1.53;;;;;;;7.49;100.00;97003.59;5077540;28;20882;-81
2023/12/25 02:49:03;;;;;;;2.80;1.60;;;;;;;7.49;100.00;97005.44;5066966;28;20409;-82
2023/12/25 02:51:29;;;;;;;1.73;1.33;;;;;;;7.54;100.00;96990.50;5056323;28;21132;-82
2023/12/25 02:53:55;;;;;;;1.85;1.40;;;;;;;7.56;100.00;97006.88;5057299;28;20401;-82
2023/12/25 02:56:21;;;;;;;1.40;1.30;;;;;;;7.55;100.00;96993.94;5056411;28;20393;-82
2023/12/25 02:58:47;;;;;;;2.38;1.42;;;;;;;7.52;100.00;96987.31;5056258;28;20394;-81
2023/12/25 03:01:15;;;;;;;2.22;1.55;;;;;;;7.48;100.00;97002.00;5056097;28;20404;-80
2023/12/25 03:03:41;;;;;;;2.45;1.35;;;;;;;7.47;100.00;96992.50;5055957;28;20471;-82
2023/12/25 03:06:08;;;;;;;2.83;1.50;;;;;;;7.49;100.00;96969.38;5064520;28;20822;-81
2023/12/25 03:08:34;;;;;;;3.95;1.50;;;;;;;7.45;100.00;96972.69;5063146;28;20401;-82
2023/12/25 03:11:00;;;;;;;2.17;1.40;;;;;;;7.38;100.00;96957.88;5056166;28;20442;-82
2023/12/25 03:13:27;;;;;;;1.98;1.40;;;;;;;7.35;100.00;96958.38;5054437;28;20789;-82
2023/12/25 03:15:53;;;;;;;4.07;1.55;;;;;;;7.36;100.00;96959.16;5055399;28;20409;-82
2023/12/25 03:18:20;;;;;;;2.15;1.52;;;;;;;7.33;100.00;96955.16;5071936;28;20402;-82
2023/12/25 03:20:46;;;;;;;2.50;1.50;;;;;;;7.32;100.00;96964.09;5075406;28;20478;-82
2023/12/25 03:23:13;;;;;;;4.20;1.30;;;;;;;7.32;100.00;96939.59;5066442;28;20405;-82
2023/12/25 03:25:39;;;;;;;3.08;1.50;;;;;;;7.33;100.00;96949.09;5055781;28;20389;-82
2023/12/25 03:28:05;;;;;;;3.97;1.50;;;;;;;7.36;100.00;96927.56;5058077;28;20754;-82
2023/12/25 03:30:31;;;;;;;2.22;1.70;;;;;;;7.38;100.00;96952.59;5056921;28;20449;-82
2023/12/25 03:32:58;;;;;;;2.65;1.35;;;;;;;7.41;100.00;96951.34;5065405;28;20391;-81
2023/12/25 03:35:25;;;;;;;3.33;1.40;;;;;;;7.36;100.00;96948.63;5075153;28;20395;-82
2023/12/25 03:37:51;;;;;;;3.13;1.55;;;;;;;7.34;100.00;96971.78;5075937;28;20445;-83
2023/12/25 03:40:17;;;;;;;3.27;1.53;;;;;;;7.32;100.00;96965.94;5076478;28;20902;-82
2023/12/25 03:42:43;;;;;;;2.05;1.50;;;;;;;7.32;100.00;96960.66;5079688;28;20449;-83
2023/12/25 03:45:10;;;;;;;3.73;1.50;;;;;;;7.38;100.00;96957.06;5080646;28;20392;-83
2023/12/25 03:47:36;;;;;;;1.65;1.55;;;;;;;7.35;100.00;96947.03;5076546;28;20420;-82
2023/12/25 03:50:02;;;;;;;2.40;1.67;;;;;;;7.36;100.00;96967.06;5054854;28;20394;-82
2023/12/25 03:52:29;;;;;;;4.47;1.70;;;;;;;7.37;100.00;96953.63;5054810;28;20406;-82
2023/12/25 03:54:56;;;;;;;2.10;1.60;;;;;;;7.33;100.00;96942.00;5057841;28;20931;-83
2023/12/25 03:57:22;;;;;;;1.80;1.40;;;;;;;7.34;100.00;96940.97;5058514;28;20762;-84
2023/12/25 03:59:48;;;;;;;2.63;1.50;;;;;;;7.36;100.00;96946.00;5062816;28;20396;-83
2023/12/25 04:02:14;;;;;;;3.45;1.45;;;;;;;7.36;100.00;96943.38;5076379;28;20395;-81
2023/12/25 04:04:40;;;;;;;1.50;1.40;;;;;;;7.35;100.00;96960.19;5075731;28;20423;-82
2023/12/25 04:07:06;;;;;;;2.25;1.50;;;;;;;7.35;100.00;96961.00;5074037;28;20407;-82
2023/12/25 04:09:34;;;;;;;4.05;1.30;;;;;;;7.34;100.00;96951.50;5070520;28;20418;-82
2023/12/25 04:12:00;;;;;;;1.42;1.33;;;;;;;7.35;100.00;96958.38;5064431;28;20985;-82
2023/12/25 04:14:26;;;;;;;4.15;1.60;;;;;;;7.31;100.00;96959.88;5074205;28;20887;-82
2023/12/25 04:16:52;;;;;;;1.47;1.30;;;;;;;7.28;100.00;96964.84;5073883;28;20823;-82
2023/12/25 04:19:18;;;;;;;3.60;1.50;;;;;;;7.27;100.00;96968.50;5074894;28;20772;-83
2023/12/25 04:21:45;;;;;;;2.70;1.40;;;;;;;7.28;100.00;96970.91;5074299;28;20494;-81
2023/12/25 04:24:11;;;;;;;2.75;1.50;;;;;;;7.31;100.00;96959.06;5073403;28;20403;-82
2023/12/25 04:26:40;;;;;;;2.30;1.50;;;;;;;7.30;100.00;96963.53;5074516;28;20392;-81
2023/12/25 04:29:06;;;;;;;2.17;1.38;;;;;;;7.36;100.00;96959.97;5074467;28;20395;-82
2023/12/25 04:31:32;;;;;;;1.88;1.40;;;;;;;7.33;100.00;96973.59;5074417;28;20913;-82
2023/12/25 04:33:58;;;;;;;2.00;1.40;;;;;;;7.26;100.00;96983.50;5074595;28;20395;-82
2023/12/25 04:36:24;;;;;;;2.30;1.60;;;;;;;7.21;100.00;96980.00;5062290;28;20398;-82
2023/12/25 04:38:50;;;;;;;1.80;1.60;;;;;;;7.14;100.00;96990.66;5054318;28;20441;-82
2023/12/25 04:41:20;;;;;;;3.67;1.50;;;;;;;7.15;100.00;96994.09;5054242;28;20485;-83
2023/12/25 04:43:50;;;;;;;6.50;1.70;;;;;;;7.18;100.00;96988.34;5033824;28;20769;-82
2023/12/25 04:46:16;;;;;;;2.73;1.33;;;;;;;7.24;100.00;96979.50;5055888;28;20408;-82
2023/12/25 04:48:42;;;;;;;2.05;1.50;;;;;;;7.22;100.00;96985.00;5074339;28;20596;-82
2023/12/25 04:51:09;;;;;;;1.50;1.33;;;;;;;7.21;100.00;96983.44;5074572;28;20899;-82
2023/12/25 04:53:36;;;;;;;1.77;1.30;;;;;;;7.24;100.00;96972.41;5073947;28;20399;-81
2023/12/25 04:56:02;;;;;;;1.70;1.60;;;;;;;7.25;100.00;96981.91;5073244;28;21041;-82
2023/12/25 04:58:29;;;;;;;1.50;1.40;;;;;;;7.29;100.00;96972.47;5078127;28;20391;-82
2023/12/25 05:00:56;;;;;;;1.48;1.35;;;;;;;7.33;100.00;96975.44;5064951;28;20423;-82
2023/12/25 05:03:23;;;;;;;2.35;1.38;;;;;;;7.27;100.00;96971.13;5049930;28;20414;-82
2023/12/25 05:05:49;;;;;;;2.28;1.35;;;;;;;7.23;100.00;96978.69;5071415;28;20422;-82
2023/12/25 05:08:16;;;;;;;2.00;1.30;;;;;;;7.22;100.00;96968.41;5063573;28;20465;-83
2023/12/25 05:10:42;;;;;;;1.40;1.30;;;;;;;7.17;100.00;96966.50;5084224;28;20431;-82
2023/12/25 05:13:08;;;;;;;2.72;1.27;;;;;;;7.13;100.00;96967.22;5098227;28;20391;-82
2023/12/25 05:15:34;;;;;;;2.88;1.65;;;;;;;7.12;100.00;96961.16;5098248;28;20414;-82
2023/12/25 05:18:02;;;;;;;1.48;1.30;;;;;;;7.13;100.00;96952.25;5097392;28;20388;-80
2023/12/25 05:20:28;;;;;;;3.15;1.30;;;;;;;7.16;100.00;96951.75;5077328;28;21037;-81
2023/12/25 05:22:54;;;;;;;1.40;1.30;;;;;;;7.15;100.00;96944.88;5072103;28;20516;-81
2023/12/25 05:25:21;;;;;;;1.63;1.27;;;;;;;7.14;100.00;96940.66;5073373;28;20919;-81
2023/12/25 05:27:47;;;;;;;1.58;1.25;;;;;;;7.15;100.00;96934.34;5070054;28;20912;-81
2023/12/25 05:30:13;;;;;;;1.25;1.15;;;;;;;7.14;100.00;96927.50;5053229;28;20394;-81
2023/12/25 05:32:39;;;;;;;2.10;1.30;;;;;;;7.14;100.00;96930.13;5052848;28;20406;-81
2023/12/25 05:35:07;;;;;;;1.60;1.25;;;;;;;7.17;100.00;96948.06;5073228;28;20402;-82
2023/12/25 05:37:34;;;;;;;1.83;1.30;;;;;;;7.10;100.00;96947.44;5079660;28;20399;-82
2023/12/25 05:40:00;;;;;;;1.48;1.38;;;;;;;7.17;100.00;96948.06;5079912;28;20457;-81
2023/12/25 05:42:26;;;;;;;2.35;1.20;;;;;;;7.17;100.00;96932.28;5080401;28;20404;-81
2023/12/25 05:44:52;;;;;;;1.50;1.40;;;;;;;7.18;100.00;96947.03;5076234;28;20753;-81
2023/12/25 05:47:19;;;;;;;2.80;1.38;;;;;;;7.19;100.00;96959.16;5075433;28;20407;-81
2023/12/25 05:49:45;;;;;;;2.43;1.50;;;;;;;7.22;100.00;96961.31;5078511;28;20486;-80
2023/12/25 05:52:13;;;;;;;3.40;1.85;;;;;;;7.18;100.00;96954.13;5079887;28;20469;-81
2023/12/25 05:54:39;;;;;;;2.40;1.33;;;;;;;7.14;100.00;96943.28;5079592;28;20414;-80
2023/12/25 05:57:05;;;;;;;1.52;1.40;;;;;;;7.15;100.00;96955.41;5072335;28;20851;-80
2023/12/25 05:59:31;;;;;;;1.52;1.40;;;;;;;7.16;100.00;96959.63;5059628;28;20401;-81
2023/12/25 06:01:57;;;;;;;1.70;1.30;;;;;;;7.15;100.00;96962.50;5075964;28;20483;-81
2023/12/25 06:04:24;;;;;;;2.00;1.50;;;;;;;7.17;100.00;96960.44;5078110;28;20935;-82
2023/12/25 06:06:53;;;;;;;1.70;1.60;;;;;;;7.18;100.00;96972.56;5061566;28;20394;-80
2023/12/25 06:09:21;;;;;;;1.50;1.40;;;;;;;7.18;100.00;96973.38;5059596;28;20482;-80
2023/12/25 06:11:47;;;;;;;1.90;1.63;;;;;;;7.20;100.00;96979.19;5064542;28;20748;-82
2023/12/25 06:14:13;;;;;;;2.28;1.40;;;;;;;7.22;100.00;96989.47;5062033;28;20416;-82
2023/12/25 06:16:39;;;;;;;1.40;1.30;;;;;;;7.21;100.00;96986.06;5074275;28;20407;-80
2023/12/25 06:19:05;;;;;;;1.40;1.27;;;;;;;7.16;100.00;96993.06;5081490;28;20733;-81
2023/12/25 06:21:32;;;;;;;1.83;1.50;;;;;;;7.10;100.00;96986.91;5075975;28;20493;-81
2023/12/25 06:23:58;;;;;;;1.50;1.40;;;;;;;7.07;100.00;96976.84;5060893;28;20388;-82
2023/12/25 06:26:25;;;;;;;1.67;1.50;;;;;;;7.01;100.00;96969.91;5067685;28;20433;-81
2023/12/25 06:28:51;;;;;;;1.30;1.20;;;;;;;6.99;100.00;96977.28;5059679;28;20408;-81
2023/12/25 06:31:17;;;;;;;1.52;1.40;;;;;;;6.99;100.00;96993.06;5077474;28;20868;-81
2023/12/25 06:33:44;;;;;;;2.25;1.50;;;;;;;6.97;100.00;96982.78;5062794;28;20869;-81
2023/12/25 06:36:10;;;;;;;1.63;1.48;;;;;;;6.97;100.00;96985.41;5059843;28;20401;-81
2023/12/25 06:38:36;;;;;;;3.13;1.55;;;;;;;6.99;100.00;96998.31;5059550;28;20496;-82
2023/12/25 06:41:03;;;;;;;1.73;1.50;;;;;;;7.02;100.00;97004.94;5059178;28;20492;-83
2023/12/25 06:43:31;;;;;;;1.50;1.40;;;;;;;7.00;100.00;96997.25;5064528;28;20421;-82
2023/12/25 06:45:57;;;;;;;6.50;1.50;;;;;;;6.99;100.00;97011.47;5078918;28;20427;-81
2023/12/25 06:48:23;;;;;;;1.77;1.60;;;;;;;7.04;100.00;97014.19;5075334;28;20410;-82
2023/12/25 06:50:49;;;;;;;1.77;1.40;;;;;;;7.03;100.00;97017.06;5063709;28;20459;-81
2023/12/25 06:53:15;;;;;;;1.63;1.23;;;;;;;7.07;100.00;97018.19;5073164;28;20403;-81
2023/12/25 06:55:41;;;;;;;1.83;1.60;;;;;;;7.05;100.00;97015.00;5076560;28;20924;-81
2023/12/25 06:58:08;;;;;;;1.98;1.40;;;;;;;7.03;100.00;97009.97;5054801;28;20400;-82
2023/12/25 07:00:35;;;;;;;1.33;1.23;;;;;;;6.92;100.00;97011.59;5065030;28;20422;-79
2023/12/25 07:03:01;;;;;;;2.20;1.52;;;;;;;6.90;100.00;97024.22;5063797;28;20791;-85
2023/12/25 07:05:28;;;;;;;1.38;1.27;;;;;;;6.89;100.00;97027.09;5046998;28;20395;-80
2023/12/25 07:07:55;;;;;;;1.48;1.38;;;;;;;6.86;100.00;97025.72;5048908;28;20396;-79
2023/12/25 07:10:22;;;;;;;1.40;1.30;;;;;;;6.83;100.00;97013.03;5043356;28;20460;-79
2023/12/25 07:12:48;;;;;;;1.60;1.50;;;;;;;6.81;100.00;97023.00;5045525;28;20400;-79
2023/12/25 07:15:14;;;;;;;1.40;1.30;;;;;;;6.74;100.00;97029.44;5044302;28;20391;-79
2023/12/25 07:17:41;;;;;;;2.00;1.60;;;;;;;6.75;100.00;97042.34;5062083;28;20392;-79
2023/12/25 07:20:08;;;;;;;1.35;1.20;;;;;;;6.75;100.00;97044.19;5062408;28;20928;-84
2023/12/25 07:22:35;;;;;;;1.50;1.40;;;;;;;6.75;100.00;97042.34;5051605;28;20488;-81
2023/12/25 07:25:05;;;;;;;1.40;1.30;;;;;;;6.75;100.00;97052.88;5057531;28;20446;-80
2023/12/25 07:27:32;;;;;;;1.30;1.20;;;;;;;6.76;100.00;97051.06;5063613;28;20426;-80
2023/12/25 07:29:58;;;;;;;1.40;1.30;;;;;;;6.75;100.00;97039.72;5055568;28;20571;-80
2023/12/25 07:32:24;;;;;;;2.50;2.03;;;;;;;6.75;100.00;97041.56;5054059;28;20458;-80
2023/12/25 07:34:52;;;;;;;2.75;1.65;;;;;;;6.83;100.00;97033.28;5053853;28;20414;-80
2023/12/25 07:37:18;;;;;;;2.00;1.73;;;;;;;6.86;100.00;97035.44;5046439;28;20393;-80
2023/12/25 07:39:44;;;;;;;3.05;1.50;;;;;;;6.87;100.00;97034.41;5047744;28;20447;-80
2023/12/25 07:42:10;;;;;;;3.85;1.50;;;;;;;6.88;100.00;97034.16;5052124;28;20407;-80
2023/12/25 07:44:39;;;;;;;1.50;1.30;;;;;;;6.93;100.00;97060.56;5059546;28;20408;-82
2023/12/25 07:47:05;;;;;;;1.50;1.40;;;;;;;6.99;100.00;97053.59;5076385;28;20423;-81
2023/12/25 07:49:32;;;;;;;1.80;1.70;;;;;;;7.04;100.00;97069.44;5076558;28;20396;-81
2023/12/25 07:51:59;;;;;;;2.45;1.60;;;;;;;7.03;100.00;97075.75;5071297;28;20409;-79
2023/12/25 07:54:25;;;;;;;2.65;1.70;;;;;;;7.09;100.00;97077.44;5041444;28;20404;-80
2023/12/25 07:56:51;;;;;;;2.50;1.60;;;;;;;7.12;100.00;97076.97;5043881;28;20404;-85
2023/12/25 07:59:21;;;;;;;2.10;1.70;;;;;;;7.11;100.00;97062.22;5059464;28;20397;-83
2023/12/25 08:01:47;;;;;;;3.65;1.45;;;;;;;7.09;100.00;97072.16;5060373;28;20397;-84
2023/12/25 08:04:13;;;;;;;2.13;1.60;;;;;;;7.17;100.00;97077.06;5054442;28;20493;-81
2023/12/25 08:06:39;;;;;;;1.50;1.40;;;;;;;7.18;100.00;97073.38;5034359;28;20399;-84
2023/12/25 08:09:07;;;;;;;1.50;1.40;;;;;;;7.19;100.00;97084.72;5034803;28;20403;-84
2023/12/25 08:11:35;;;;;;;3.72;1.77;;;;;;;7.15;100.00;97081.75;5070878;28;20423;-84
2023/12/25 08:14:01;;;;;;;1.92;1.52;;;;;;;7.16;100.00;97091.25;5074768;28;20873;-83
2023/12/25 08:16:27;;;;;;;1.98;1.40;;;;;;;7.18;100.00;97093.66;5074972;28;20880;-84
2023/12/25 08:18:53;;;;;;;1.63;1.50;;;;;;;7.26;100.00;97099.34;5074994;28;20773;-85
2023/12/25 08:21:20;;;;;;;1.92;1.48;;;;;;;7.29;100.00;97098.84;5065790;28;20397;-83
2023/12/25 08:23:46;;;;;;;2.03;1.63;;;;;;;7.29;100.00;97105.97;5055131;28;20402;-83
2023/12/25 08:26:13;;;;;;;2.25;1.40;;;;;;;7.37;100.00;97087.13;5058493;28;20900;-82
2023/12/25 08:28:40;;;;;;;1.60;1.50;;;;;;;7.43;100.00;97093.28;5060433;28;20404;-84
2023/12/25 08:31:07;;;;;;;1.70;1.50;;;;;;;7.39;100.00;97101.66;5056009;28;20932;-82
2023/12/25 08:33:35;;;;;;;1.65;1.40;;;;;;;7.46;100.00;97114.66;5058596;28;20812;-83
2023/12/25 08:36:01;;;;;;;1.85;1.60;;;;;;;7.50;100.00;97109.75;5063133;28;20410;-82
2023/12/25 08:38:27;;;;;;;1.75;1.48;;;;;;;7.53;100.00;97112.69;5068962;28;20396;-82
2023/12/25 08:40:53;;;;;;;1.92;1.73;;;;;;;7.61;100.00;97114.13;5062048;28;20501;-81
2023/12/25 08:43:20;;;;;;;1.42;1.30;;;;;;;7.68;100.00;97122.66;5062453;28;20391;-81
2023/12/25 08:45:47;;;;;;;1.83;1.60;;;;;;;7.77;100.00;97129.16;5063587;28;20397;-82
2023/12/25 08:48:13;;;;;;;2.15;1.35;;;;;;;7.85;100.00;97131.38;5062046;28;20672;-82
2023/12/25 08:50:39;;;;;;;1.65;1.35;;;;;;;7.88;100.00;97132.75;5064514;28;20392;-82
2023/12/25 08:53:05;;;;;;;2.00;1.48;;;;;;;7.99;100.00;97131.84;5057502;28;20408;-83
2023/12/25 08:55:31;;;;;;;1.55;1.45;;;;;;;7.99;100.00;97124.75;5073000;28;20465;-83
2023/12/25 08:57:57;;;;;;;2.53;1.70;;;;;;;8.04;100.00;97121.41;5071706;28;20833;-82
2023/12/25 09:00:25;;;;;;;2.85;1.60;;;;;;;8.12;100.00;97131.53;5065051;28;20898;-82
2023/12/25 09:02:51;;;;;;;1.50;1.40;;;;;;;8.14;100.00;97119.72;5053856;28;20406;-85
2023/12/25 09:05:18;;;;;;;1.77;1.42;;;;;;;8.10;100.00;97129.16;5063832;28;20411;-83
2023/12/25 09:07:44;;;;;;;1.73;1.25;;;;;;;8.12;100.00;97126.25;5065934;28;20530;-84
2023/12/25 09:10:10;;;;;;;2.20;1.40;;;;;;;8.11;100.00;97137.88;5065290;28;20421;-85
2023/12/25 09:12:36;;;;;;;1.58;1.45;;;;;;;8.11;100.00;97133.38;5078438;28;20419;-84
2023/12/25 09:15:04;;;;;;;2.67;1.38;;;;;;;8.10;100.00;97131.00;5058870;28;20407;-84
2023/12/25 09:17:32;;;;;;;2.75;1.63;;;;;;;8.07;100.00;97137.53;5063673;28;20438;-85
2023/12/25 09:19:58;;;;;;;1.90;1.40;;;;;;;8.10;100.00;97137.06;5076767;28;20387;-84
2023/12/25 09:22:27;;;;;;;2.47;1.40;;;;;;;8.15;100.00;97171.41;5090745;28;21021;-83
2023/12/25 09:24:53;;;;;;;2.28;1.50;;;;;;;8.21;100.00;97158.28;5087588;28;20417;-83
2023/12/25 09:27:19;;;;;;;1.65;1.20;;;;;;;8.30;100.00;97151.56;5079026;28;20420;-81
2023/12/25 09:29:45;;;;;;;2.50;1.30;;;;;;;8.33;100.00;97166.94;5053429;28;20401;-82
2023/12/25 09:32:11;;;;;;;2.60;1.35;;;;;;;8.41;100.00;97156.78;5055924;28;20504;-82
2023/12/25 09:34:39;;;;;;;1.65;1.30;;;;;;;8.47;100.00;97150.53;5072938;28;20403;-83
2023/12/25 09:37:05;;;;;;;1.98;1.40;;;;;;;8.58;100.00;97156.75;5072733;28;20399;-80
2023/12/25 09:39:31;;;;;;;2.88;1.80;;;;;;;8.72;100.00;97165.13;5070931;28;20634;-80
2023/12/25 09:41:58;;;;;;;2.50;1.55;;;;;;;8.84;100.00;97161.31;5051976;28;20409;-80
2023/12/25 09:44:25;;;;;;;1.42;1.33;;;;;;;8.95;100.00;97153.53;5045632;28;20470;-81
2023/12/25 09:46:52;;;;;;;1.67;1.27;;;;;;;9.05;100.00;97154.44;5058750;28;20401;-82
2023/12/25 09:49:20;;;;;;;1.58;1.35;;;;;;;9.16;100.00;97158.81;5064255;28;20415;-82
2023/12/25 09:51:52;;;;;;;1.83;1.40;;;;;;;9.23;100.00;97164.69;5069515;28;20813;-83
2023/12/25 09:54:18;;;;;;;1.45;1.30;;;;;;;9.36;100.00;97158.22;5051519;28;20395;-83
2023/12/25 09:56:45;;;;;;;1.27;1.17;;;;;;;9.43;100.00;97155.38;5048964;28;20450;-82
2023/12/25 09:59:12;;;;;;;1.25;1.15;;;;;;;9.48;100.00;97160.69;5047708;28;20395;-81
2023/12/25 10:01:40;;;;;;;3.83;1.50;;;;;;;9.55;100.00;97169.22;5040275;28;20407;-82
2023/12/25 10:04:08;;;;;;;2.08;1.40;;;;;;;9.55;100.00;97175.31;5042790;28;20499;-84
2023/12/25 10:06:35;;;;;;;1.20;1.10;;;;;;;9.59;100.00;97162.41;5049518;28;20401;-82
2023/12/25 10:09:03;;;;;;;1.65;1.30;;;;;;;9.60;100.00;97154.22;5050923;28;20393;-82
2023/12/25 10:11:30;;;;;;;1.35;1.20;;;;;;;9.68;100.00;97166.19;5041384;28;20983;-82
2023/12/25 10:13:56;;;;;;;1.08;0.90;;;;;;;9.83;100.00;97157.59;5044835;28;20472;-83
2023/12/25 10:16:23;;;;;;;1.58;1.30;;;;;;;10.16;100.00;97144.09;5042390;28;20912;-82
2023/12/25 10:18:50;;;;;;;1.20;1.10;;;;;;;10.56;100.00;97129.56;5040308;28;20500;-80
2023/12/25 10:21:16;;;;;;;1.83;1.20;;;;;;;10.94;100.00;97134.50;5043336;28;20513;-81
2023/12/25 10:23:42;;;;;;;0.90;0.90;;;;;;;11.20;100.00;97127.47;5047951;28;20904;-81
2023/12/25 10:26:09;;;;;;;1.70;1.23;;;;;;;11.13;100.00;97124.22;5050117;28;20455;-80
2023/12/25 10:28:36;;;;;;;1.10;1.00;;;;;;;11.20;100.00;97127.47;5047087;28;20395;-79
2023/12/25 10:31:03;;;;;;;1.27;1.00;;;;;;;11.10;100.00;97124.78;5046255;28;20777;-81
2023/12/25 10:33:31;;;;;;;1.20;1.10;;;;;;;10.86;100.00;97130.50;5052376;28;20421;-84
2023/12/25 10:36:03;;;;;;;1.20;1.10;;;;;;;10.65;100.00;97128.03;5061419;28;20952;-82
2023/12/25 10:38:33;;;;;;;1.10;1.00;;;;;;;10.59;100.00;97137.00;5062949;28;20429;-84
2023/12/25 10:41:18;;;;;;;1.10;1.00;;;;;;;11.02;100.00;97131.38;5055532;28;20403;-83
2023/12/25 10:43:49;;;;;;;1.23;0.93;;;;;;;11.63;100.00;97111.09;5054943;28;20425;-83
2023/12/25 10:46:16;;;;;;;1.10;1.00;;;;;;;12.06;100.00;97116.16;5065825;28;20395;-85
2023/12/25 10:48:48;;;;;;;1.67;1.10;;;;;;;12.86;100.00;97095.78;5069739;28;20381;-87
2023/12/25 10:51:16;;;;;;;1.52;0.90;;;;;;;13.63;100.00;97107.59;5066720;28;20440;-84
2023/12/25 10:53:43;;;;;;;0.80;0.80;;;;;;;14.11;100.00;97114.69;5074051;28;20396;-86
2023/12/25 10:56:11;;;;;;;1.00;0.80;;;;;;;14.12;100.00;97110.94;5067184;28;20396;-84
2023/12/25 10:58:38;;;;;;;0.75;0.73;;;;;;;14.22;100.00;97118.81;5063338;28;20394;-84
2023/12/25 11:01:05;;;;;;;0.70;0.70;;;;;;;14.38;100.00;97111.50;5056010;28;20397;-84
2023/12/25 11:03:33;;;;;;;0.80;0.80;;;;;;;14.40;100.00;97109.38;5070877;28;20435;-84
2023/12/25 11:06:00;;;;;;;1.10;0.90;;;;;;;14.37;100.00;97122.41;5062233;28;20404;-84
2023/12/25 11:08:26;;;;;;;0.67;0.67;;;;;;;14.46;100.00;97104.78;5056435;28;20402;-83
2023/12/25 11:10:53;;;;;;;0.70;0.70;;;;;;;14.56;100.00;97110.81;5056837;28;20404;-82
2023/12/25 11:13:20;;;;;;;7.10;0.68;;;;;;;14.57;100.00;97119.59;5060960;28;20885;-84
2023/12/25 11:15:47;;;;;;;0.68;0.60;;;;;;;14.51;100.00;97107.41;5059090;28;20401;-82
2023/12/25 11:18:15;;;;;;;0.90;0.77;;;;;;;14.38;100.00;97116.84;5056729;28;20444;-83
2023/12/25 11:21:00;;;;;;;1.65;0.65;;;;;;;13.96;100.00;97096.19;5056859;28;20943;-83
2023/12/25 11:23:28;;;;;;;1.17;1.08;;;;;;;13.77;100.00;97101.38;5056507;28;20398;-82
2023/12/25 11:25:54;;;;;;;0.95;0.70;;;;;;;13.51;100.00;97089.34;5055690;28;20480;-83
2023/12/25 11:28:21;;;;;;;0.77;0.77;;;;;;;12.99;100.00;97119.13;5057735;28;20390;-83